createdAt,value
2022-07-30T00:00:37.215Z,85.71
2022-07-30T00:03:03.806Z,85.05
2022-07-30T00:05:30.206Z,84.86
2022-07-30T00:07:56.639Z,85.26
2022-07-30T00:10:23.181Z,84.83
2022-07-30T00:12:49.898Z,84.50
2022-07-30T00:15:16.334Z,84.00
2022-07-30T00:17:42.858Z,83.98
2022-07-30T00:20:13.532Z,84.25
2022-07-30T00:22:40.378Z,84.56
2022-07-30T00:25:07.267Z,84.23
2022-07-30T00:27:35.176Z,84.82
2022-07-30T00:30:02.720Z,84.91
2022-07-30T00:32:29.299Z,85.01
2022-07-30T00:34:55.724Z,85.16
2022-07-30T00:37:22.298Z,84.73
2022-07-30T00:39:48.811Z,84.97
2022-07-30T00:42:15.317Z,85.19
2022-07-30T00:44:41.736Z,85.82
2022-07-30T00:47:08.196Z,85.39
2022-07-30T00:49:34.622Z,85.64
2022-07-30T00:52:01.037Z,85.64
2022-07-30T00:54:29.082Z,85.49
2022-07-30T00:56:55.485Z,85.26
2022-07-30T00:59:21.896Z,85.16
2022-07-30T01:01:48.881Z,85.34
2022-07-30T01:04:15.354Z,85.12
2022-07-30T01:06:41.785Z,84.63
2022-07-30T01:09:08.594Z,84.91
2022-07-30T01:11:39.837Z,84.99
2022-07-30T01:14:08.186Z,85.00
2022-07-30T01:16:58.225Z,84.53
2022-07-30T01:19:48.499Z,85.14
2022-07-30T01:22:34.815Z,85.42
2022-07-30T01:25:27.761Z,85.04
2022-07-30T01:27:59.399Z,84.62
2022-07-30T01:30:28.757Z,84.49
2022-07-30T01:32:57.085Z,84.78
2022-07-30T01:35:25.847Z,84.78
2022-07-30T01:37:54.405Z,84.61
2022-07-30T01:40:22.502Z,84.37
2022-07-30T01:42:54.881Z,83.85
2022-07-30T01:45:24.480Z,83.31
2022-07-30T01:47:57.435Z,83.33
2022-07-30T01:50:24.813Z,83.51
2022-07-30T01:52:53.958Z,83.89
2022-07-30T01:55:27.960Z,84.15
2022-07-30T01:57:55.962Z,84.59
2022-07-30T02:00:25.578Z,85.16
2022-07-30T02:02:52.525Z,85.89
2022-07-30T02:05:20.065Z,85.87
2022-07-30T02:07:56.116Z,85.52
2022-07-30T02:10:36.444Z,85.75
2022-07-30T02:13:06.730Z,86.78
2022-07-30T02:15:38.707Z,87.08
2022-07-30T02:18:15.094Z,87.64
2022-07-30T02:20:45.388Z,87.77
2022-07-30T02:23:18.123Z,88.30
2022-07-30T02:25:49.091Z,88.79
2022-07-30T02:28:18.576Z,89.11
2022-07-30T02:30:50.377Z,89.26
2022-07-30T02:33:23.586Z,88.82
2022-07-30T02:35:54.227Z,89.22
2022-07-30T02:38:21.841Z,88.69
2022-07-30T02:40:49.574Z,87.78
2022-07-30T02:43:17.618Z,87.57
2022-07-30T02:45:47.189Z,87.10
2022-07-30T02:48:31.276Z,86.82
2022-07-30T02:51:04.081Z,85.97
2022-07-30T02:53:33.337Z,86.03
2022-07-30T02:56:01.793Z,86.61
2022-07-30T02:58:29.919Z,86.86
2022-07-30T03:00:57.399Z,86.95
2022-07-30T03:03:29.020Z,87.74
2022-07-30T03:05:57.733Z,86.58
2022-07-30T03:08:27.476Z,86.01
2022-07-30T03:10:55.765Z,85.91
2022-07-30T03:13:24.706Z,84.94
2022-07-30T03:15:53.025Z,84.52
2022-07-30T03:18:22.051Z,85.21
2022-07-30T03:20:53.410Z,84.74
2022-07-30T03:23:21.487Z,85.32
2022-07-30T03:25:54.698Z,85.99
2022-07-30T03:28:23.997Z,86.16
2022-07-30T03:30:52.744Z,85.31
2022-07-30T03:33:20.730Z,84.87
2022-07-30T03:35:49.703Z,84.48
2022-07-30T03:38:16.906Z,84.06
2022-07-30T03:40:44.286Z,83.82
2022-07-30T03:43:32.499Z,84.52
2022-07-30T03:46:01.559Z,84.76
2022-07-30T03:48:33.409Z,84.45
2022-07-30T03:51:03.046Z,84.06
2022-07-30T03:53:31.122Z,83.91
2022-07-30T03:56:23.953Z,84.46
2022-07-30T03:59:09.895Z,84.02
2022-07-30T04:01:39.593Z,83.92
2022-07-30T04:04:23.653Z,84.25
2022-07-30T04:06:50.290Z,84.32
2022-07-30T04:09:19.271Z,84.23
2022-07-30T04:11:46.882Z,83.55
2022-07-30T04:14:16.740Z,83.83
2022-07-30T04:17:02.179Z,83.74
2022-07-30T04:19:34.619Z,84.47
2022-07-30T04:22:03.054Z,83.64
2022-07-30T04:24:31.649Z,83.68
2022-07-30T04:27:01.203Z,83.63
2022-07-30T04:29:28.510Z,84.66
2022-07-30T04:31:56.148Z,84.41
2022-07-30T04:34:52.952Z,85.07
2022-07-30T04:37:39.372Z,85.86
2022-07-30T04:40:06.706Z,86.26
2022-07-30T04:42:33.310Z,85.61
2022-07-30T04:45:05.486Z,85.14
2022-07-30T04:47:47.537Z,84.56
2022-07-30T04:50:34.973Z,85.28
2022-07-30T04:53:02.988Z,85.41
2022-07-30T04:55:35.700Z,85.82
2022-07-30T04:58:03.791Z,86.10
2022-07-30T05:00:40.444Z,86.48
2022-07-30T05:03:13.209Z,86.98
2022-07-30T05:05:42.996Z,87.72
2022-07-30T05:08:09.641Z,88.13
2022-07-30T05:10:37.960Z,88.13
2022-07-30T05:13:04.562Z,87.35
2022-07-30T05:15:36.201Z,87.85
2022-07-30T05:18:06.780Z,88.54
2022-07-30T05:20:36.693Z,88.87
2022-07-30T05:23:08.640Z,89.12
2022-07-30T05:25:37.414Z,89.79
2022-07-30T05:28:15.074Z,91.04
2022-07-30T05:30:42.925Z,91.36
2022-07-30T05:33:16.072Z,91.76
2022-07-30T05:35:43.406Z,91.49
2022-07-30T05:38:09.924Z,91.54
2022-07-30T05:40:50.398Z,92.00
2022-07-30T05:43:36.785Z,91.86
2022-07-30T05:46:03.441Z,91.59
2022-07-30T05:48:31.346Z,91.07
2022-07-30T05:50:59.899Z,92.04
2022-07-30T05:53:26.282Z,91.41
2022-07-30T05:56:24.874Z,92.00
2022-07-30T05:59:01.986Z,91.37
2022-07-30T06:01:48.446Z,92.33
2022-07-30T06:04:20.893Z,91.08
2022-07-30T06:06:52.431Z,90.32
2022-07-30T06:09:19.042Z,91.69
2022-07-30T06:11:55.002Z,91.37
2022-07-30T06:14:24.095Z,90.66
2022-07-30T06:16:50.914Z,90.07
2022-07-30T06:19:19.734Z,91.19
2022-07-30T06:22:05.254Z,91.49
2022-07-30T06:24:33.060Z,92.35
2022-07-30T06:27:15.190Z,91.85
2022-07-30T06:29:41.673Z,91.99
2022-07-30T06:32:09.112Z,91.49
2022-07-30T06:34:35.493Z,89.62
2022-07-30T06:37:02.450Z,89.50
2022-07-30T06:39:57.457Z,88.99
2022-07-30T06:42:20.292Z,89.23
2022-07-30T06:45:15.654Z,88.50
2022-07-30T06:48:07.808Z,90.28
2022-07-30T06:50:36.051Z,89.94
2022-07-30T06:53:02.626Z,89.81
2022-07-30T06:55:44.817Z,88.91
2022-07-30T06:58:11.293Z,88.16
2022-07-30T07:00:56.105Z,86.24
2022-07-30T07:03:26.189Z,84.61
2022-07-30T07:06:07.118Z,84.94
2022-07-30T07:08:36.234Z,83.29
2022-07-30T07:11:02.744Z,83.56
2022-07-30T07:13:32.248Z,82.59
2022-07-30T07:16:01.889Z,82.13
2022-07-30T07:18:30.394Z,81.67
2022-07-30T07:21:04.526Z,82.42
2022-07-30T07:23:41.454Z,81.51
2022-07-30T07:26:13.148Z,82.16
2022-07-30T07:28:40.222Z,81.68
2022-07-30T07:31:08.138Z,81.61
2022-07-30T07:33:35.634Z,81.64
2022-07-30T07:36:02.839Z,80.90
2022-07-30T07:38:31.885Z,79.80
2022-07-30T07:40:59.781Z,79.49
2022-07-30T07:43:27.534Z,80.19
2022-07-30T07:45:57.181Z,79.40
2022-07-30T07:48:26.264Z,77.84
2022-07-30T07:51:03.539Z,79.00
2022-07-30T07:53:36.473Z,79.04
2022-07-30T07:56:03.644Z,76.63
2022-07-30T07:58:31.047Z,73.03
2022-07-30T08:01:00.716Z,73.58
2022-07-30T08:03:47.742Z,70.86
2022-07-30T08:06:49.285Z,70.55
2022-07-30T08:09:40.794Z,72.48
2022-07-30T08:12:27.249Z,72.91
2022-07-30T08:15:12.064Z,72.86
2022-07-30T08:18:11.047Z,73.50
2022-07-30T08:20:56.164Z,71.09
2022-07-30T08:23:28.014Z,69.73
2022-07-30T08:25:56.249Z,68.69
2022-07-30T08:28:35.912Z,67.25
2022-07-30T08:31:04.370Z,68.34
2022-07-30T08:33:30.838Z,67.07
2022-07-30T08:36:02.803Z,67.50
2022-07-30T08:38:32.061Z,68.37
2022-07-30T08:40:59.033Z,67.54
2022-07-30T08:43:26.616Z,66.50
2022-07-30T08:45:56.407Z,66.24
2022-07-30T08:48:42.986Z,65.63
2022-07-30T08:51:12.301Z,66.30
2022-07-30T08:54:14.387Z,64.79
2022-07-30T08:56:42.169Z,63.27
2022-07-30T08:59:08.833Z,63.66
2022-07-30T09:01:35.428Z,63.89
2022-07-30T09:04:02.062Z,61.74
2022-07-30T09:06:28.867Z,61.86
2022-07-30T09:08:55.660Z,61.05
2022-07-30T09:11:22.361Z,61.68
2022-07-30T09:13:50.746Z,61.53
2022-07-30T09:16:23.145Z,62.05
2022-07-30T09:18:51.544Z,59.54
2022-07-30T09:21:22.162Z,59.01
2022-07-30T09:24:04.169Z,58.44
2022-07-30T09:27:07.579Z,59.29
2022-07-30T09:29:59.368Z,57.56
2022-07-30T09:32:53.063Z,58.30
2022-07-30T09:35:38.526Z,56.80
2022-07-30T09:38:12.007Z,57.36
2022-07-30T09:41:37.785Z,56.39
2022-07-30T09:44:08.578Z,56.71
2022-07-30T09:46:47.173Z,57.40
2022-07-30T09:49:20.620Z,57.58
2022-07-30T09:51:55.850Z,57.79
2022-07-30T09:54:50.672Z,57.54
2022-07-30T10:00:23.483Z,56.53
2022-07-30T10:03:34.448Z,56.00
2022-07-30T10:06:33.254Z,56.44
2022-07-30T10:09:01.607Z,59.82
2022-07-30T10:11:41.073Z,60.91
2022-07-30T10:14:08.930Z,57.28
2022-07-30T10:16:35.402Z,57.43
2022-07-30T10:19:02.789Z,57.73
2022-07-30T10:21:50.630Z,56.69
2022-07-30T10:24:36.546Z,55.21
2022-07-30T10:27:20.415Z,55.04
2022-07-30T10:30:07.611Z,51.79
2022-07-30T10:32:42.295Z,52.93
2022-07-30T10:35:09.587Z,53.21
2022-07-30T10:37:40.929Z,52.37
2022-07-30T10:40:08.431Z,53.87
2022-07-30T10:43:13.955Z,54.04
2022-07-30T10:45:59.002Z,54.46
2022-07-30T10:48:32.966Z,54.61
2022-07-30T10:51:00.298Z,55.97
2022-07-30T10:53:38.398Z,56.14
2022-07-30T10:56:25.884Z,57.06
2022-07-30T10:59:11.768Z,57.17
2022-07-30T11:01:51.708Z,57.93
2022-07-30T11:04:25.717Z,58.56
2022-07-30T11:07:22.321Z,58.88
2022-07-30T11:10:09.384Z,57.27
2022-07-30T11:12:44.168Z,53.47
2022-07-30T11:15:19.146Z,51.64
2022-07-30T11:18:02.594Z,51.58
2022-07-30T11:20:31.105Z,51.59
2022-07-30T11:23:19.612Z,52.87
2022-07-30T11:25:51.066Z,51.21
2022-07-30T11:28:42.462Z,51.49
2022-07-30T11:31:49.892Z,50.20
2022-07-30T11:34:18.717Z,50.66
2022-07-30T11:37:18.816Z,49.22
2022-07-30T11:39:55.125Z,49.95
2022-07-30T11:42:28.855Z,51.46
2022-07-30T11:45:16.947Z,53.46
2022-07-30T11:47:49.319Z,52.78
2022-07-30T11:50:21.129Z,50.96
2022-07-30T11:52:52.458Z,50.29
2022-07-30T11:55:24.361Z,50.21
2022-07-30T11:57:51.527Z,47.32
2022-07-30T12:00:21.264Z,48.84
2022-07-30T12:05:24.896Z,50.01
2022-07-30T12:07:51.810Z,49.58
2022-07-30T12:10:26.866Z,49.67
2022-07-30T12:13:07.809Z,50.34
2022-07-30T12:15:37.032Z,51.10
2022-07-30T12:18:24.548Z,51.31
2022-07-30T12:21:02.313Z,51.75
2022-07-30T12:23:29.846Z,50.52
2022-07-30T12:25:57.537Z,49.70
2022-07-30T12:28:26.828Z,48.34
2022-07-30T12:30:54.650Z,49.28
2022-07-30T12:33:22.874Z,47.51
2022-07-30T12:35:56.651Z,46.10
2022-07-30T12:38:24.954Z,44.87
2022-07-30T12:41:01.253Z,44.13
2022-07-30T12:43:44.902Z,44.96
2022-07-30T12:46:14.985Z,44.77
2022-07-30T12:49:22.441Z,46.77
2022-07-30T12:51:59.713Z,46.06
2022-07-30T12:54:27.761Z,47.49
2022-07-30T12:57:03.803Z,48.25
2022-07-30T12:59:32.474Z,44.50
2022-07-30T13:02:03.360Z,43.44
2022-07-30T13:04:31.477Z,43.16
2022-07-30T13:07:09.358Z,44.53
2022-07-30T13:09:36.554Z,40.83
2022-07-30T13:12:04.374Z,39.95
2022-07-30T13:14:30.842Z,40.57
2022-07-30T13:16:58.244Z,38.48
2022-07-30T13:19:26.078Z,40.04
2022-07-30T13:21:52.529Z,41.03
2022-07-30T13:24:19.224Z,42.97
2022-07-30T13:26:46.330Z,41.77
2022-07-30T13:29:13.511Z,41.02
2022-07-30T13:31:42.937Z,41.04
2022-07-30T13:34:10.948Z,40.60
2022-07-30T13:36:37.413Z,37.33
2022-07-30T13:39:03.871Z,37.85
2022-07-30T13:41:30.298Z,37.55
2022-07-30T13:43:56.717Z,36.51
2022-07-30T13:46:23.111Z,36.23
2022-07-30T13:48:49.852Z,37.82
2022-07-30T13:51:16.516Z,38.09
2022-07-30T13:53:43.107Z,38.33
2022-07-30T13:56:12.815Z,38.76
2022-07-30T13:58:40.368Z,37.74
2022-07-30T14:01:07.006Z,40.28
2022-07-30T14:03:33.950Z,35.98
2022-07-30T14:06:10.156Z,35.70
2022-07-30T14:08:38.636Z,35.53
2022-07-30T14:11:06.036Z,35.50
2022-07-30T14:13:32.462Z,34.46
2022-07-30T14:15:58.912Z,31.30
2022-07-30T14:18:25.464Z,32.15
2022-07-30T14:20:53.633Z,33.16
2022-07-30T14:23:20.395Z,36.15
2022-07-30T14:25:46.977Z,30.64
2022-07-30T14:28:13.697Z,30.71
2022-07-30T14:30:40.149Z,30.07
2022-07-30T14:33:06.573Z,33.18
2022-07-30T14:35:32.970Z,32.86
2022-07-30T14:37:59.475Z,30.10
2022-07-30T14:40:26.075Z,30.98
2022-07-30T14:42:52.449Z,32.77
2022-07-30T14:45:22.888Z,32.35
2022-07-30T14:47:49.286Z,33.85
2022-07-30T14:50:15.703Z,35.22
2022-07-30T14:52:42.295Z,34.34
2022-07-30T14:55:09.921Z,35.40
2022-07-30T14:57:36.702Z,36.86
2022-07-30T15:00:05.591Z,36.96
2022-07-30T15:02:32.000Z,36.58
2022-07-30T15:04:58.425Z,36.87
2022-07-30T15:07:24.821Z,37.54
2022-07-30T15:09:51.201Z,37.64
2022-07-30T15:12:23.886Z,37.57
2022-07-30T15:14:53.710Z,38.47
2022-07-30T15:17:20.266Z,38.70
2022-07-30T15:19:50.113Z,38.68
2022-07-30T15:22:20.575Z,38.94
2022-07-30T15:24:47.154Z,39.11
2022-07-30T15:27:13.528Z,37.66
2022-07-30T15:29:39.992Z,38.18
2022-07-30T15:32:07.219Z,37.36
2022-07-30T15:34:34.294Z,36.12
2022-07-30T15:37:01.886Z,36.56
2022-07-30T15:39:29.453Z,36.20
2022-07-30T15:41:56.979Z,36.84
2022-07-30T15:44:24.124Z,35.84
2022-07-30T15:46:51.288Z,34.83
2022-07-30T15:49:17.818Z,34.94
2022-07-30T15:51:50.065Z,35.26
2022-07-30T15:54:22.315Z,36.19
2022-07-30T15:56:49.873Z,35.88
2022-07-30T15:59:16.586Z,36.69
2022-07-30T16:01:43.958Z,36.51
2022-07-30T16:04:18.339Z,36.05
2022-07-30T16:06:49.403Z,36.47
2022-07-30T16:09:16.452Z,36.80
2022-07-30T16:11:43.070Z,37.01
2022-07-30T16:14:09.606Z,37.58
2022-07-30T16:16:36.028Z,37.61
2022-07-30T16:19:02.549Z,38.00
2022-07-30T16:21:28.930Z,38.59
2022-07-30T16:23:56.522Z,38.28
2022-07-30T16:26:22.959Z,38.31
2022-07-30T16:28:49.838Z,38.51
2022-07-30T16:31:16.438Z,37.93
2022-07-30T16:33:43.090Z,38.58
2022-07-30T16:36:09.617Z,39.17
2022-07-30T16:38:36.040Z,39.50
2022-07-30T16:41:02.588Z,40.33
2022-07-30T16:43:31.758Z,40.47
2022-07-30T16:45:59.329Z,40.28
2022-07-30T16:48:26.721Z,40.32
2022-07-30T16:50:53.628Z,40.38
2022-07-30T16:53:20.325Z,40.45
2022-07-30T16:55:46.960Z,40.47
2022-07-30T16:58:13.677Z,40.70
2022-07-30T17:00:40.449Z,40.71
2022-07-30T17:03:07.478Z,40.80
2022-07-30T17:05:34.216Z,40.96
2022-07-30T17:08:00.633Z,41.28
2022-07-30T17:10:27.802Z,40.06
2022-07-30T17:12:54.599Z,40.51
2022-07-30T17:15:32.746Z,40.58
2022-07-30T17:18:02.623Z,41.19
2022-07-30T17:20:29.879Z,41.19
2022-07-30T17:22:56.432Z,42.09
2022-07-30T17:25:27.392Z,41.77
2022-07-30T17:27:58.264Z,41.37
2022-07-30T17:30:27.100Z,41.63
2022-07-30T17:32:54.112Z,42.71
2022-07-30T17:35:21.144Z,42.79
2022-07-30T17:37:47.830Z,42.73
2022-07-30T17:40:28.645Z,42.48
2022-07-30T17:43:03.243Z,42.89
2022-07-30T17:45:31.142Z,42.80
2022-07-30T17:47:57.844Z,43.50
2022-07-30T17:50:24.240Z,43.67
2022-07-30T17:52:50.686Z,43.51
2022-07-30T17:55:17.203Z,42.98
2022-07-30T17:57:43.678Z,43.79
2022-07-30T18:00:10.747Z,43.77
2022-07-30T18:02:37.339Z,44.10
2022-07-30T18:05:03.994Z,44.18
2022-07-30T18:07:30.438Z,44.63
2022-07-30T18:09:56.837Z,45.00
2022-07-30T18:12:23.382Z,45.31
2022-07-30T18:14:50.217Z,45.40
2022-07-30T18:17:16.592Z,45.54
2022-07-30T18:19:43.000Z,45.87
2022-07-30T18:22:09.680Z,46.17
2022-07-30T18:24:40.546Z,46.35
2022-07-30T18:27:11.839Z,46.29
2022-07-30T18:29:38.262Z,46.50
2022-07-30T18:32:05.483Z,46.85
2022-07-30T18:34:32.257Z,47.79
2022-07-30T18:36:58.638Z,47.75
2022-07-30T18:39:25.057Z,48.28
2022-07-30T18:41:51.434Z,48.40
2022-07-30T18:44:17.835Z,48.89
2022-07-30T18:46:44.204Z,48.78
2022-07-30T18:49:35.116Z,49.26
2022-07-30T18:51:59.207Z,49.54
2022-07-30T18:54:25.761Z,49.97
2022-07-30T18:56:52.212Z,49.82
2022-07-30T18:59:18.635Z,49.70
2022-07-30T19:01:45.029Z,50.19
2022-07-30T19:04:11.515Z,50.07
2022-07-30T19:06:38.026Z,50.24
2022-07-30T19:09:05.735Z,50.65
2022-07-30T19:11:44.983Z,50.61
2022-07-30T19:14:13.019Z,50.80
2022-07-30T19:16:39.800Z,50.82
2022-07-30T19:19:06.324Z,50.90
2022-07-30T19:21:32.750Z,51.26
2022-07-30T19:23:59.137Z,51.00
2022-07-30T19:26:25.628Z,50.94
2022-07-30T19:28:52.031Z,50.99
2022-07-30T19:31:18.769Z,51.07
2022-07-30T19:33:45.210Z,50.91
2022-07-30T19:36:12.806Z,51.16
2022-07-30T19:38:41.946Z,51.35
2022-07-30T19:41:08.740Z,51.42
2022-07-30T19:43:35.237Z,51.47
2022-07-30T19:46:03.842Z,51.51
2022-07-30T19:48:32.390Z,51.18
2022-07-30T19:51:00.681Z,51.83
2022-07-30T19:53:31.559Z,51.60
2022-07-30T19:56:08.384Z,51.13
2022-07-30T19:58:37.632Z,51.29
2022-07-30T20:01:08.509Z,52.17
2022-07-30T20:03:35.692Z,51.61
2022-07-30T20:06:02.239Z,51.98
2022-07-30T20:08:29.497Z,51.74
2022-07-30T20:10:57.577Z,51.27
2022-07-30T20:13:25.328Z,51.68
2022-07-30T20:16:14.619Z,51.37
2022-07-30T20:18:42.757Z,51.76
2022-07-30T20:21:14.644Z,51.73
2022-07-30T20:23:42.731Z,51.49
2022-07-30T20:26:12.853Z,51.96
2022-07-30T20:28:41.078Z,51.37
2022-07-30T20:31:08.280Z,50.96
2022-07-30T20:33:36.166Z,51.04
2022-07-30T20:36:05.928Z,50.91
2022-07-30T20:38:37.551Z,51.53
2022-07-30T20:41:10.194Z,51.96
2022-07-30T20:43:52.201Z,52.00
2022-07-30T20:46:20.605Z,52.36
2022-07-30T20:48:50.850Z,52.65
2022-07-30T20:51:17.475Z,52.83
2022-07-30T20:53:45.212Z,52.92
2022-07-30T20:56:13.553Z,53.19
2022-07-30T20:58:41.028Z,53.24
2022-07-30T21:01:07.740Z,53.52
2022-07-30T21:03:34.244Z,53.63
2022-07-30T21:06:02.395Z,54.12
2022-07-30T21:08:29.105Z,54.58
2022-07-30T21:10:57.340Z,55.09
2022-07-30T21:13:26.518Z,55.78
2022-07-30T21:16:02.326Z,56.10
2022-07-30T21:18:30.092Z,56.46
2022-07-30T21:20:57.310Z,56.33
2022-07-30T21:23:24.776Z,56.57
2022-07-30T21:26:01.509Z,57.04
2022-07-30T21:28:35.674Z,57.10
2022-07-30T21:31:03.688Z,57.51
2022-07-30T21:33:31.107Z,57.57
2022-07-30T21:35:57.813Z,57.91
2022-07-30T21:38:26.378Z,58.60
2022-07-30T21:40:53.086Z,58.87
2022-07-30T21:43:29.575Z,59.17
2022-07-30T21:45:57.715Z,59.50
2022-07-30T21:48:25.548Z,59.79
2022-07-30T21:50:54.182Z,59.83
2022-07-30T21:53:29.503Z,59.96
2022-07-30T21:56:07.369Z,59.63
2022-07-30T21:58:33.787Z,59.44
2022-07-30T22:01:17.545Z,60.14
2022-07-30T22:06:38.067Z,60.82
2022-07-30T22:11:52.875Z,60.27
2022-07-30T22:14:19.290Z,59.33
2022-07-30T22:16:46.037Z,59.17
2022-07-30T22:22:02.059Z,59.49
2022-07-30T22:24:46.681Z,60.33
2022-07-30T22:27:14.718Z,60.56
2022-07-30T22:29:43.284Z,60.55
2022-07-30T22:32:11.121Z,61.52
2022-07-30T22:34:37.654Z,61.74
2022-07-30T22:37:04.344Z,62.10
2022-07-30T22:39:50.913Z,62.38
2022-07-30T22:42:24.137Z,62.09
2022-07-30T22:44:51.738Z,62.08
2022-07-30T22:47:21.028Z,61.89
2022-07-30T22:49:56.114Z,61.91
2022-07-30T22:52:29.613Z,61.75
2022-07-30T22:55:02.046Z,61.63
2022-07-30T22:57:37.823Z,61.45
2022-07-30T23:00:12.184Z,62.08
2022-07-30T23:02:39.806Z,62.21
2022-07-30T23:05:07.945Z,62.28
2022-07-30T23:07:39.981Z,63.22
2022-07-30T23:10:17.054Z,64.14
2022-07-30T23:12:28.557Z,59.08
2022-07-30T23:12:31.442Z,60.86
2022-07-30T23:12:32.057Z,61.22
2022-07-30T23:12:45.478Z,64.70
2022-07-30T23:15:12.034Z,64.86
2022-07-30T23:17:39.537Z,65.36
2022-07-30T23:20:09.674Z,65.28
2022-07-30T23:22:36.234Z,64.85
2022-07-30T23:25:04.065Z,64.76
2022-07-30T23:27:30.602Z,64.38
2022-07-30T23:29:56.976Z,64.51
2022-07-30T23:32:23.402Z,64.90
2022-07-30T23:34:50.018Z,64.87
2022-07-30T23:37:16.739Z,64.78
2022-07-30T23:39:43.562Z,64.39
2022-07-30T23:42:10.030Z,65.13
2022-07-30T23:44:37.325Z,65.97
2022-07-30T23:47:04.849Z,66.55
2022-07-30T23:49:31.532Z,67.18
2022-07-30T23:51:57.934Z,66.78
2022-07-30T23:54:24.400Z,66.44
2022-07-30T23:56:55.046Z,66.96
2022-07-30T23:59:23.726Z,66.07
